Time;durP1;ratioP1;P1;durP2;ratioP2;P2;SDS_P1;SDS_P2;PMS_P1;PMS_P2;Temp;Humidity;BMP_temperature;BMP_pressure;BME280_temperature;BME280_humidity;BME280_pressure;Samples;Min_cycle;Max_cycle;Signal;HPM_P1;HPM_P2
2023/06/24 00:01:02;;;;;;;4.23;3.97;;;;;;;13.52;100.00;97757.44;4936865;28;20209;-67
2023/06/24 00:03:31;;;;;;;4.00;3.70;;;;;;;13.58;100.00;97774.47;4963393;28;20241;-67
2023/06/24 00:06:03;;;;;;;4.33;4.03;;;;;;;13.50;100.00;97753.28;4940226;28;20225;-67
2023/06/24 00:08:34;;;;;;;3.90;3.60;;;;;;;13.46;100.00;97759.00;4940100;28;20273;-67
2023/06/24 00:11:02;;;;;;;4.10;3.80;;;;;;;13.57;100.00;97770.16;4971035;28;20940;-67
2023/06/24 00:13:29;;;;;;;3.33;3.13;;;;;;;13.57;100.00;97771.00;4970528;28;20280;-67
2023/06/24 00:15:59;;;;;;;4.17;3.87;;;;;;;13.58;100.00;97775.31;4936189;28;20265;-66
2023/06/24 00:18:28;;;;;;;4.37;4.17;;;;;;;13.61;100.00;97771.44;4958792;28;20208;-68
2023/06/24 00:20:57;;;;;;;4.20;3.80;;;;;;;13.59;100.00;97768.97;4944922;28;20213;-68
2023/06/24 00:23:25;;;;;;;3.93;3.63;;;;;;;13.62;100.00;97761.63;4935240;28;20241;-68
2023/06/24 00:25:54;;;;;;;4.03;3.70;;;;;;;13.60;100.00;97769.78;4959003;28;20312;-68
2023/06/24 00:28:21;;;;;;;3.93;3.73;;;;;;;13.67;100.00;97765.38;4970935;28;20228;-67
2023/06/24 00:30:50;;;;;;;4.80;4.07;;;;;;;13.66;100.00;97761.06;4959079;28;20210;-66
2023/06/24 00:33:20;;;;;;;4.33;4.03;;;;;;;13.64;100.00;97764.91;4938223;28;20474;-67
2023/06/24 00:35:49;;;;;;;4.83;3.90;;;;;;;13.62;100.00;97757.09;4941879;28;20217;-68
2023/06/24 00:38:17;;;;;;;3.97;3.70;;;;;;;13.57;100.00;97764.84;4943724;28;21078;-68
2023/06/24 00:40:46;;;;;;;4.07;3.87;;;;;;;13.60;100.00;97764.44;4970984;28;20229;-68
2023/06/24 00:43:14;;;;;;;3.70;3.40;;;;;;;13.56;100.00;97752.53;4964208;28;20211;-67
2023/06/24 00:45:42;;;;;;;4.27;4.00;;;;;;;13.59;100.00;97762.81;4965162;28;20217;-68
2023/06/24 00:48:10;;;;;;;6.67;4.33;;;;;;;13.51;100.00;97737.16;4922267;28;20793;-67
2023/06/24 00:50:42;;;;;;;4.17;3.97;;;;;;;13.62;100.00;97756.28;4971626;28;20304;-67
2023/06/24 00:53:11;;;;;;;5.70;4.13;;;;;;;13.63;100.00;97744.63;4945749;28;20300;-68
2023/06/24 00:55:39;;;;;;;4.50;4.20;;;;;;;13.63;100.00;97750.75;4941471;28;20205;-67
2023/06/24 00:58:08;;;;;;;4.10;3.80;;;;;;;13.65;100.00;97738.09;4965097;28;20199;-67
2023/06/24 01:00:36;;;;;;;4.27;3.97;;;;;;;13.64;100.00;97743.59;4970688;28;20225;-68
2023/06/24 01:03:04;;;;;;;4.87;4.10;;;;;;;13.64;100.00;97739.13;4932507;28;20198;-68
2023/06/24 01:05:35;;;;;;;4.40;4.00;;;;;;;13.49;100.00;97733.84;4964170;28;20210;-66
2023/06/24 01:08:03;;;;;;;4.53;4.23;;;;;;;13.59;100.00;97744.16;4944569;28;20673;-68
2023/06/24 01:10:32;;;;;;;5.13;4.73;;;;;;;13.58;100.00;97746.03;4952195;28;20209;-66
2023/06/24 01:13:00;;;;;;;4.97;4.47;;;;;;;13.61;100.00;97742.13;4965003;28;20380;-68
2023/06/24 01:15:28;;;;;;;5.00;4.50;;;;;;;13.60;100.00;97744.00;4971047;28;20625;-69
2023/06/24 01:18:00;;;;;;;5.93;4.77;;;;;;;13.66;100.00;97744.25;4967009;28;20206;-68
2023/06/24 01:20:30;;;;;;;4.90;4.60;;;;;;;13.63;100.00;97736.63;4932757;28;20264;-66
2023/06/24 01:23:22;;;;;;;4.60;4.20;;;;;;;13.69;100.00;97734.03;4939786;28;20286;-67
2023/06/24 01:26:07;;;;;;;4.93;4.33;;;;;;;13.67;100.00;97735.25;4935481;28;20220;-68
2023/06/24 01:28:59;;;;;;;4.83;4.53;;;;;;;13.67;100.00;97732.56;4962866;28;20297;-69
2023/06/24 01:31:34;;;;;;;5.17;4.80;;;;;;;13.71;100.00;97731.19;4967020;28;20687;-68
2023/06/24 01:34:07;;;;;;;4.87;4.50;;;;;;;13.77;100.00;97730.41;4966773;28;20225;-67
2023/06/24 01:36:36;;;;;;;5.73;5.33;;;;;;;13.73;100.00;97729.97;4919202;28;20222;-68
2023/06/24 01:39:05;;;;;;;5.67;5.17;;;;;;;13.77;100.00;97727.75;4949192;28;20295;-67
2023/06/24 01:41:35;;;;;;;5.20;4.73;;;;;;;13.72;100.00;97724.84;4944874;28;20253;-67
2023/06/24 01:44:03;;;;;;;5.50;5.00;;;;;;;13.79;100.00;97724.91;4964508;28;20222;-68
2023/06/24 01:46:32;;;;;;;7.00;4.97;;;;;;;13.76;100.00;97726.09;4958693;28;20249;-68
2023/06/24 01:49:03;;;;;;;5.47;5.07;;;;;;;13.74;100.00;97723.66;4968800;28;20288;-68
2023/06/24 01:51:32;;;;;;;5.53;5.13;;;;;;;13.75;100.00;97722.63;4914088;28;20302;-68
2023/06/24 01:54:02;;;;;;;5.67;5.07;;;;;;;13.74;100.00;97717.47;4937990;28;20266;-67
2023/06/24 01:56:31;;;;;;;5.40;4.90;;;;;;;13.72;100.00;97716.84;4940415;28;20242;-68
2023/06/24 01:59:01;;;;;;;5.80;5.30;;;;;;;13.75;100.00;97713.81;4968342;28;20748;-68
2023/06/24 02:01:30;;;;;;;5.53;5.13;;;;;;;13.76;100.00;97707.47;4965860;28;20298;-68
2023/06/24 02:04:00;;;;;;;5.67;5.27;;;;;;;13.75;100.00;97708.47;4961525;28;20248;-68
2023/06/24 02:06:29;;;;;;;5.73;5.20;;;;;;;13.76;100.00;97707.47;4915029;28;20229;-67
2023/06/24 02:08:58;;;;;;;5.97;5.47;;;;;;;13.78;100.00;97699.28;4967619;28;20541;-68
2023/06/24 02:11:27;;;;;;;5.73;5.33;;;;;;;13.57;100.00;97687.63;4935912;28;20213;-67
2023/06/24 02:13:55;;;;;;;6.07;5.47;;;;;;;13.69;100.00;97706.59;4955130;28;20404;-67
2023/06/24 02:16:23;;;;;;;5.70;5.30;;;;;;;13.65;100.00;97708.81;4967532;28;20352;-70
2023/06/24 02:18:52;;;;;;;6.10;5.70;;;;;;;13.64;100.00;97712.50;4961831;28;20676;-67
2023/06/24 02:21:23;;;;;;;6.60;6.10;;;;;;;13.58;100.00;97703.44;4968876;28;20209;-66
2023/06/24 02:23:53;;;;;;;6.60;6.10;;;;;;;13.63;100.00;97715.34;4922669;28;20614;-68
2023/06/24 02:26:21;;;;;;;5.53;5.10;;;;;;;13.69;100.00;97714.56;4944305;28;20201;-69
2023/06/24 02:28:50;;;;;;;5.77;5.37;;;;;;;13.59;100.00;97707.72;4964358;28;20420;-68
2023/06/24 02:31:18;;;;;;;6.20;5.80;;;;;;;13.63;100.00;97715.34;4966168;28;20272;-67
2023/06/24 02:33:46;;;;;;;6.70;6.10;;;;;;;13.65;100.00;97711.47;4957157;28;20229;-67
2023/06/24 02:36:14;;;;;;;5.93;5.47;;;;;;;13.70;100.00;97717.06;4967115;28;20210;-67
2023/06/24 02:38:43;;;;;;;5.80;5.40;;;;;;;13.69;100.00;97720.72;4920318;28;20437;-67
2023/06/24 02:41:10;;;;;;;6.67;6.07;;;;;;;13.73;100.00;97722.00;4964062;28;20210;-68
2023/06/24 02:43:38;;;;;;;6.87;6.27;;;;;;;13.74;100.00;97720.16;4915539;28;20331;-67
2023/06/24 02:46:06;;;;;;;6.00;5.60;;;;;;;13.74;100.00;97718.31;4970649;28;20755;-67
2023/06/24 02:48:35;;;;;;;6.80;6.20;;;;;;;13.73;100.00;97732.66;4966208;28;20257;-67
2023/06/24 02:51:04;;;;;;;6.47;5.87;;;;;;;13.73;100.00;97727.31;4970880;28;20209;-66
2023/06/24 02:53:32;;;;;;;5.83;5.30;;;;;;;13.74;100.00;97728.13;4949662;28;20245;-67
2023/06/24 02:56:05;;;;;;;6.47;6.00;;;;;;;13.78;100.00;97729.41;4966774;28;20262;-67
2023/06/24 02:58:33;;;;;;;6.87;6.27;;;;;;;13.75;100.00;97733.28;4937422;28;20309;-67
2023/06/24 03:01:02;;;;;;;5.93;5.53;;;;;;;13.77;100.00;97741.06;4965566;28;20774;-68
2023/06/24 03:03:30;;;;;;;6.63;6.13;;;;;;;13.74;100.00;97739.63;4969686;28;20256;-67
2023/06/24 03:05:58;;;;;;;6.13;5.67;;;;;;;13.75;100.00;97751.09;4971153;28;20434;-67
2023/06/24 03:08:29;;;;;;;6.27;5.73;;;;;;;13.67;100.00;97746.72;4955619;28;20312;-67
2023/06/24 03:10:58;;;;;;;6.30;5.70;;;;;;;13.77;100.00;97754.38;4944748;28;20359;-66
2023/06/24 03:13:27;;;;;;;6.17;5.77;;;;;;;13.75;100.00;97751.09;4937826;28;20637;-66
2023/06/24 03:15:55;;;;;;;5.90;5.40;;;;;;;13.81;100.00;97750.31;4958373;28;20478;-67
2023/06/24 03:18:23;;;;;;;6.77;6.20;;;;;;;13.82;100.00;97757.28;4971978;28;20284;-67
2023/06/24 03:20:52;;;;;;;6.60;6.20;;;;;;;13.81;100.00;97754.84;4970912;28;20432;-68
2023/06/24 03:23:19;;;;;;;6.30;5.80;;;;;;;13.88;100.00;97761.88;4964895;28;20213;-68
2023/06/24 03:25:47;;;;;;;6.83;6.23;;;;;;;13.83;100.00;97771.44;4915688;28;20320;-68
2023/06/24 03:28:14;;;;;;;6.60;5.90;;;;;;;13.82;100.00;97783.13;4970506;28;20218;-68
2023/06/24 03:30:43;;;;;;;6.90;6.20;;;;;;;13.88;100.00;97787.69;4921467;28;20452;-68
2023/06/24 03:33:16;;;;;;;6.63;6.13;;;;;;;13.93;100.00;97790.59;4964034;28;20237;-68
2023/06/24 03:35:44;;;;;;;6.20;5.80;;;;;;;13.93;100.00;97787.94;4969379;28;20608;-67
2023/06/24 03:38:12;;;;;;;6.27;5.77;;;;;;;13.91;100.00;97795.28;4971999;28;20193;-67
2023/06/24 03:40:40;;;;;;;7.37;6.70;;;;;;;13.92;100.00;97798.78;4919397;28;20208;-67
2023/06/24 03:43:08;;;;;;;6.90;6.40;;;;;;;13.92;100.00;97794.28;4964757;28;20214;-67
2023/06/24 03:45:36;;;;;;;6.30;5.80;;;;;;;13.98;100.00;97803.34;4929151;28;20241;-67
2023/06/24 03:48:06;;;;;;;6.60;6.13;;;;;;;13.97;100.00;97802.50;4972974;28;20241;-67
2023/06/24 03:50:34;;;;;;;6.77;6.17;;;;;;;14.01;100.00;97810.97;4964349;28;20920;-67
2023/06/24 03:53:01;;;;;;;7.33;6.67;;;;;;;14.01;100.00;97810.97;4972943;28;20312;-68
2023/06/24 03:55:29;;;;;;;7.30;6.67;;;;;;;14.06;100.00;97805.88;4971212;28;20209;-67
2023/06/24 03:57:57;;;;;;;6.57;5.90;;;;;;;14.11;100.00;97800.00;4923454;28;20221;-67
2023/06/24 04:00:25;;;;;;;5.97;5.57;;;;;;;14.15;100.00;97806.56;4944408;28;20237;-68
2023/06/24 04:02:53;;;;;;;6.67;6.20;;;;;;;14.18;100.00;97803.53;4943647;28;20732;-67
2023/06/24 04:05:22;;;;;;;7.30;6.70;;;;;;;14.20;100.00;97804.16;4973594;28;20229;-68
2023/06/24 04:07:52;;;;;;;6.37;5.77;;;;;;;14.29;100.00;97810.19;4965999;28;20786;-69
2023/06/24 04:10:20;;;;;;;6.27;5.77;;;;;;;14.35;100.00;97803.25;4935888;28;20819;-68
2023/06/24 04:12:47;;;;;;;6.70;6.20;;;;;;;14.43;100.00;97811.94;4910820;28;20237;-68
2023/06/24 04:15:15;;;;;;;5.70;5.30;;;;;;;14.52;100.00;97807.28;4940300;28;21094;-68
2023/06/24 04:17:43;;;;;;;6.93;5.40;;;;;;;14.53;100.00;97808.94;4957239;28;20209;-69
2023/06/24 04:20:11;;;;;;;6.27;5.77;;;;;;;14.52;100.00;97803.78;4968204;28;20293;-68
2023/06/24 04:22:41;;;;;;;6.07;5.67;;;;;;;14.57;100.00;97798.69;4968826;28;20362;-68
2023/06/24 04:25:09;;;;;;;5.63;5.23;;;;;;;14.44;100.00;97805.56;4959548;28;20896;-68
2023/06/24 04:27:37;;;;;;;6.73;6.23;;;;;;;14.55;100.00;97809.56;4916805;28;20230;-68
2023/06/24 04:30:06;;;;;;;6.67;6.17;;;;;;;14.38;100.00;97802.84;4948220;28;20892;-67
2023/06/24 04:32:33;;;;;;;6.17;5.70;;;;;;;14.47;100.00;97823.03;4968720;28;20202;-68
2023/06/24 04:35:01;;;;;;;6.17;5.67;;;;;;;14.32;100.00;97809.81;4938122;28;20281;-69
2023/06/24 04:37:29;;;;;;;7.87;6.27;;;;;;;14.40;100.00;97814.97;4940742;28;20685;-68
2023/06/24 04:39:58;;;;;;;6.53;5.93;;;;;;;14.63;100.00;97824.59;4969357;28;20300;-68
2023/06/24 04:42:30;;;;;;;7.07;6.47;;;;;;;14.68;100.00;97830.16;4924178;28;20264;-67
2023/06/24 04:44:57;;;;;;;5.77;5.37;;;;;;;14.71;100.00;97827.16;4961047;28;20222;-68
2023/06/24 04:47:25;;;;;;;5.90;5.40;;;;;;;14.90;100.00;97816.78;4941465;28;20281;-68
2023/06/24 04:49:52;;;;;;;6.10;5.70;;;;;;;15.13;100.00;97821.84;4951095;28;20616;-67
2023/06/24 04:52:21;;;;;;;6.30;5.80;;;;;;;15.23;100.00;97832.16;4965120;28;20580;-68
2023/06/24 04:54:48;;;;;;;6.50;5.90;;;;;;;15.32;100.00;97825.63;4963495;28;20834;-67
2023/06/24 04:57:28;;;;;;;6.17;5.77;;;;;;;15.33;100.00;97832.59;4947951;28;20256;-66
2023/06/24 04:59:55;;;;;;;5.50;5.20;;;;;;;15.41;100.00;97828.13;4970147;28;20998;-67
2023/06/24 05:02:23;;;;;;;6.30;5.83;;;;;;;15.57;100.00;97841.13;4944132;28;20256;-68
2023/06/24 05:04:52;;;;;;;6.17;5.70;;;;;;;15.74;100.00;97825.56;4943535;28;20651;-67
2023/06/24 05:07:20;;;;;;;5.63;5.07;;;;;;;15.87;100.00;97839.97;4965181;28;20342;-69
2023/06/24 05:09:49;;;;;;;6.10;5.60;;;;;;;15.57;100.00;97835.78;4969036;28;20803;-67
2023/06/24 05:12:16;;;;;;;5.70;5.27;;;;;;;15.75;100.00;97827.22;4967172;28;20864;-67
2023/06/24 05:14:45;;;;;;;6.37;5.87;;;;;;;15.91;100.00;97833.25;4912932;28;20351;-69
2023/06/24 05:17:13;;;;;;;6.03;5.60;;;;;;;16.03;100.00;97838.81;4941465;28;20214;-67
2023/06/24 05:19:40;;;;;;;6.17;5.57;;;;;;;16.13;100.00;97838.41;4969812;28;20825;-67
2023/06/24 05:22:08;;;;;;;6.33;5.90;;;;;;;15.92;100.00;97840.25;4946428;28;20633;-68
2023/06/24 05:24:35;;;;;;;5.20;4.87;;;;;;;15.79;100.00;97833.00;4956632;28;20986;-68
2023/06/24 05:27:06;;;;;;;5.63;5.17;;;;;;;16.04;100.00;97840.47;4961486;28;20214;-67
2023/06/24 05:29:34;;;;;;;5.53;5.00;;;;;;;16.29;100.00;97843.38;4911545;28;20233;-67
2023/06/24 05:32:04;;;;;;;5.87;5.33;;;;;;;16.34;100.00;97846.28;4965373;28;20209;-67
2023/06/24 05:34:32;;;;;;;5.87;5.47;;;;;;;16.58;100.00;97844.00;4941247;28;20849;-67
2023/06/24 05:37:00;;;;;;;5.73;5.23;;;;;;;16.45;100.00;97844.81;4950154;28;22006;-66
2023/06/24 05:39:27;;;;;;;5.37;4.93;;;;;;;16.73;100.00;97846.44;4967931;28;20424;-66
2023/06/24 05:41:55;;;;;;;5.33;4.97;;;;;;;17.03;100.00;97840.69;4965586;28;20783;-67
2023/06/24 05:44:23;;;;;;;5.57;5.27;;;;;;;16.97;100.00;97837.97;4929694;28;20971;-67
2023/06/24 05:46:51;;;;;;;5.33;4.83;;;;;;;16.99;100.00;97852.00;4954993;28;20212;-68
2023/06/24 05:49:19;;;;;;;5.20;4.90;;;;;;;16.75;100.00;97848.94;4943174;28;20312;-67
2023/06/24 05:51:47;;;;;;;4.80;4.40;;;;;;;17.00;100.00;97843.78;4964740;28;20279;-67
2023/06/24 05:54:15;;;;;;;5.27;4.77;;;;;;;17.18;100.00;97839.59;4935834;28;20325;-68
2023/06/24 05:56:42;;;;;;;5.17;4.87;;;;;;;17.34;100.00;97849.88;4970348;28;20275;-67
2023/06/24 05:59:10;;;;;;;5.00;4.70;;;;;;;17.31;100.00;97849.44;4963318;28;20256;-67
2023/06/24 06:01:38;;;;;;;4.97;4.67;;;;;;;16.84;100.00;97844.16;4930013;28;20444;-67
2023/06/24 06:04:06;;;;;;;4.93;4.57;;;;;;;16.68;100.00;97854.28;4936712;28;21007;-67
2023/06/24 06:06:36;;;;;;;5.40;5.00;;;;;;;16.69;100.00;97847.09;4963407;28;20209;-67
2023/06/24 06:09:05;;;;;;;5.20;4.80;;;;;;;16.36;100.00;97840.69;4945766;28;20233;-67
2023/06/24 06:11:33;;;;;;;5.37;4.97;;;;;;;16.40;100.00;97857.16;4966310;28;20328;-67
2023/06/24 06:14:01;;;;;;;4.90;4.57;;;;;;;16.73;100.00;97849.13;4968715;28;20324;-67
2023/06/24 06:16:28;;;;;;;4.97;4.67;;;;;;;16.95;100.00;97846.22;4906707;28;20256;-68
2023/06/24 06:18:56;;;;;;;5.80;5.40;;;;;;;16.99;100.00;97855.50;4943185;28;20628;-68
2023/06/24 06:21:25;;;;;;;5.70;5.30;;;;;;;17.07;100.00;97849.94;4967027;28;20739;-67
2023/06/24 06:23:54;;;;;;;5.97;5.20;;;;;;;17.16;100.00;97842.50;4972594;28;20230;-68
2023/06/24 06:26:21;;;;;;;5.20;4.80;;;;;;;17.30;100.00;97851.31;4949951;28;20237;-68
2023/06/24 06:28:49;;;;;;;5.40;4.90;;;;;;;17.30;100.00;97845.97;4970806;28;20320;-67
2023/06/24 06:31:17;;;;;;;5.80;5.20;;;;;;;16.90;100.00;97848.72;4921434;28;20276;-68
2023/06/24 06:33:45;;;;;;;5.47;5.10;;;;;;;17.48;100.00;97849.81;4971210;28;20221;-67
2023/06/24 06:36:13;;;;;;;5.80;4.53;;;;;;;17.60;100.00;97845.41;4950849;28;20252;-68
2023/06/24 06:38:41;;;;;;;5.10;4.70;;;;;;;17.76;100.00;97848.66;4965080;28;20202;-68
2023/06/24 06:41:10;;;;;;;4.90;4.60;;;;;;;17.84;100.00;97850.28;4950447;28;20304;-68
2023/06/24 06:43:38;;;;;;;4.80;4.40;;;;;;;17.83;100.00;97852.13;4975514;28;21373;-67
2023/06/24 06:46:06;;;;;;;6.20;5.70;;;;;;;17.72;100.00;97850.13;4922835;28;20432;-67
2023/06/24 06:48:34;;;;;;;5.37;4.87;;;;;;;17.58;100.00;97836.78;4970160;28;20750;-68
2023/06/24 06:51:02;;;;;;;5.57;5.27;;;;;;;17.65;100.00;97844.78;4944675;28;20218;-67
2023/06/24 06:53:30;;;;;;;5.13;4.67;;;;;;;17.69;100.00;97839.84;4962275;28;20296;-68
2023/06/24 06:55:58;;;;;;;5.23;4.90;;;;;;;17.91;100.00;97841.13;4975592;28;20222;-68
2023/06/24 06:58:27;;;;;;;5.20;4.80;;;;;;;18.11;100.00;97850.97;4969023;28;20205;-68
2023/06/24 07:00:55;;;;;;;5.43;5.13;;;;;;;18.29;100.00;97839.50;4967531;28;20279;-67
2023/06/24 07:03:23;;;;;;;5.87;5.37;;;;;;;18.47;100.00;97832.53;4915075;28;20388;-68
2023/06/24 07:05:51;;;;;;;6.13;5.53;;;;;;;18.42;100.00;97835.88;4947774;28;20243;-67
2023/06/24 07:08:18;;;;;;;6.07;5.67;;;;;;;18.21;100.00;97837.88;4949690;28;20892;-68
2023/06/24 07:10:46;;;;;;;5.67;5.20;;;;;;;18.52;100.00;97841.59;4971253;28;20681;-67
2023/06/24 07:13:14;;;;;;;4.93;4.63;;;;;;;18.62;100.00;97829.53;4967824;28;20296;-67
2023/06/24 07:15:43;;;;;;;6.20;5.10;;;;;;;18.54;100.00;97837.84;4964372;28;20206;-69
2023/06/24 07:18:11;;;;;;;6.47;5.57;;;;;;;18.48;100.00;97844.91;4920291;28;20225;-68
2023/06/24 07:20:39;;;;;;;5.00;4.70;;;;;;;18.64;100.00;97839.00;4973180;28;20733;-67
2023/06/24 07:23:10;;;;;;;6.00;5.60;;;;;;;18.78;100.00;97830.81;4937633;28;20558;-68
2023/06/24 07:25:37;;;;;;;5.30;4.87;;;;;;;18.73;100.00;97830.66;4963747;28;20206;-67
2023/06/24 07:28:05;;;;;;;5.23;4.73;;;;;;;18.88;100.00;97827.63;4971391;28;20288;-69
2023/06/24 07:30:33;;;;;;;5.73;5.30;;;;;;;19.14;100.00;97823.88;4970321;28;20676;-68
2023/06/24 07:33:05;;;;;;;5.63;5.13;;;;;;;19.28;100.00;97821.88;4921604;28;20743;-67
2023/06/24 07:35:33;;;;;;;4.87;4.57;;;;;;;19.37;100.00;97820.50;4967359;28;20325;-68
2023/06/24 07:38:01;;;;;;;5.40;5.00;;;;;;;19.83;100.00;97822.81;4948887;28;20299;-68
2023/06/24 07:40:29;;;;;;;6.90;6.30;;;;;;;20.21;100.00;97827.03;4970933;28;20229;-67
2023/06/24 07:42:57;;;;;;;5.47;5.07;;;;;;;20.15;100.00;97817.22;4966926;28;20221;-67
2023/06/24 07:45:25;;;;;;;5.27;4.97;;;;;;;20.06;100.00;97826.66;4951991;28;20318;-67
2023/06/24 07:47:53;;;;;;;4.90;4.60;;;;;;;20.12;100.00;97825.75;4965986;28;20293;-68
2023/06/24 07:50:22;;;;;;;5.93;5.07;;;;;;;20.13;100.00;97827.38;4916542;28;20268;-68
2023/06/24 07:52:49;;;;;;;5.53;5.23;;;;;;;20.13;100.00;97827.38;4942477;28;20720;-68
2023/06/24 07:55:17;;;;;;;5.77;5.33;;;;;;;20.27;100.00;97824.47;4948239;28;20232;-67
2023/06/24 07:57:46;;;;;;;5.67;5.23;;;;;;;20.28;100.00;97824.25;4959952;28;20800;-69
2023/06/24 08:00:15;;;;;;;5.70;5.20;;;;;;;20.47;100.00;97829.56;4967847;28;20226;-68
2023/06/24 08:02:43;;;;;;;5.90;5.40;;;;;;;20.24;100.00;97825.78;4953648;28;20817;-68
2023/06/24 08:05:20;;;;;;;6.07;5.57;;;;;;;20.07;100.00;97814.84;4915966;28;20240;-67
2023/06/24 08:07:49;;;;;;;4.60;4.30;;;;;;;20.16;100.00;97824.22;4970918;28;20913;-68
2023/06/24 08:10:17;;;;;;;4.83;4.53;;;;;;;20.12;100.00;97831.13;4945686;28;20407;-68
2023/06/24 08:12:45;;;;;;;6.73;6.23;;;;;;;20.29;100.00;97825.09;4969142;28;20252;-67
2023/06/24 08:15:12;;;;;;;5.53;5.13;;;;;;;20.47;100.00;97825.00;4965194;28;20252;-69
2023/06/24 08:17:41;;;;;;;5.43;5.03;;;;;;;20.64;100.00;97818.91;4947636;28;20895;-67
2023/06/24 08:20:10;;;;;;;4.43;4.07;;;;;;;20.62;100.00;97824.53;4963554;28;20207;-67
2023/06/24 08:22:38;;;;;;;6.27;5.77;;;;;;;20.86;100.00;97815.66;4946562;28;20198;-67
2023/06/24 08:25:08;;;;;;;4.93;4.63;;;;;;;20.88;100.00;97810.84;4950949;28;20312;-67
2023/06/24 08:27:36;;;;;;;4.17;3.87;;;;;;;20.82;100.00;97815.31;4968285;28;20210;-67
2023/06/24 08:30:05;;;;;;;4.77;4.47;;;;;;;20.92;100.00;97814.72;4961611;28;20223;-67
2023/06/24 08:32:33;;;;;;;4.80;4.33;;;;;;;20.90;100.00;97806.06;4942077;28;21073;-66
2023/06/24 08:35:01;;;;;;;4.27;3.93;;;;;;;21.04;100.00;97810.16;4971447;28;20228;-67
2023/06/24 08:37:29;;;;;;;4.90;4.60;;;;;;;21.10;100.00;97808.38;4930829;28;21056;-66
2023/06/24 08:39:56;;;;;;;4.40;4.10;;;;;;;21.03;100.00;97813.91;4939980;28;20723;-65
2023/06/24 08:42:25;;;;;;;4.00;3.80;;;;;;;20.69;100.00;97797.50;4968937;28;20205;-68
2023/06/24 08:44:53;;;;;;;4.50;4.20;;;;;;;20.71;97.88;97805.34;4972812;28;20230;-66
2023/06/24 08:47:20;;;;;;;4.30;4.00;;;;;;;20.87;92.88;97803.84;4965214;28;20217;-66
2023/06/24 08:49:49;;;;;;;5.33;3.93;;;;;;;20.67;93.36;97800.41;4947716;28;20216;-66
2023/06/24 08:52:18;;;;;;;4.60;4.30;;;;;;;20.83;99.10;97803.47;4955299;28;20221;-65
2023/06/24 08:54:49;;;;;;;3.93;3.73;;;;;;;20.97;88.85;97806.75;4929742;28;20333;-65
2023/06/24 08:57:18;;;;;;;3.43;3.20;;;;;;;21.22;89.62;97806.50;4961151;28;20229;-65
2023/06/24 08:59:47;;;;;;;3.87;3.63;;;;;;;21.72;89.24;97809.63;4971780;28;20371;-67
2023/06/24 09:02:14;;;;;;;4.43;4.03;;;;;;;22.04;90.99;97805.59;4970802;28;20264;-66
2023/06/24 09:04:42;;;;;;;4.27;3.90;;;;;;;21.97;90.05;97803.88;4943198;28;20246;-66
2023/06/24 09:07:11;;;;;;;3.60;3.40;;;;;;;21.66;89.79;97799.81;4962653;28;20260;-66
2023/06/24 09:09:43;;;;;;;4.20;3.90;;;;;;;21.63;87.29;97808.34;4893519;28;20211;-66
2023/06/24 09:12:12;;;;;;;3.97;3.77;;;;;;;21.29;93.71;97802.84;4970125;28;20249;-66
2023/06/24 09:14:42;;;;;;;3.70;3.50;;;;;;;21.69;86.62;97810.13;4964838;28;20431;-67
2023/06/24 09:17:11;;;;;;;3.90;3.60;;;;;;;21.48;84.48;97804.28;4958261;28;20246;-64
2023/06/24 09:19:39;;;;;;;4.50;3.83;;;;;;;21.59;86.96;97799.91;4943424;28;20659;-64
2023/06/24 09:22:08;;;;;;;3.50;3.30;;;;;;;22.00;86.15;97799.06;4965200;28;20205;-62
2023/06/24 09:24:36;;;;;;;4.23;3.93;;;;;;;22.26;77.68;97795.75;4917545;28;20736;-64
2023/06/24 09:27:05;;;;;;;3.97;3.77;;;;;;;22.10;84.82;97794.66;4941689;28;21001;-62
2023/06/24 09:29:36;;;;;;;3.60;3.40;;;;;;;21.57;84.09;97802.03;4958693;28;20543;-65
2023/06/24 09:32:05;;;;;;;3.83;3.60;;;;;;;21.40;89.45;97797.41;4974815;28;20320;-63
2023/06/24 09:34:35;;;;;;;4.13;3.90;;;;;;;21.55;88.64;97791.47;4968937;28;20455;-62
2023/06/24 09:37:02;;;;;;;3.80;3.50;;;;;;;21.63;87.11;97792.97;4949512;28;20230;-62
2023/06/24 09:39:36;;;;;;;3.40;3.20;;;;;;;21.90;81.04;97800.53;4906057;28;21381;-61
2023/06/24 09:42:05;;;;;;;3.37;3.17;;;;;;;22.13;76.97;97793.34;4949213;28;20308;-64
2023/06/24 09:44:34;;;;;;;3.50;3.30;;;;;;;22.28;74.74;97792.78;4968121;28;20232;-63
2023/06/24 09:47:02;;;;;;;3.17;3.03;;;;;;;22.58;72.76;97790.84;4971100;28;20292;-62
2023/06/24 09:49:30;;;;;;;3.77;3.50;;;;;;;22.92;74.43;97788.06;4956471;28;20246;-62
2023/06/24 09:51:59;;;;;;;7.67;5.00;;;;;;;22.94;74.25;97781.34;4950293;28;20299;-67
2023/06/24 09:54:28;;;;;;;3.63;3.43;;;;;;;22.72;69.85;97780.50;4964259;28;20322;-65
2023/06/24 09:57:03;;;;;;;3.70;3.50;;;;;;;22.52;73.03;97788.03;4916311;28;20210;-66
2023/06/24 09:59:33;;;;;;;3.40;3.20;;;;;;;22.48;68.33;97780.72;4941721;28;20252;-66
2023/06/24 10:02:01;;;;;;;3.57;3.37;;;;;;;22.33;70.83;97773.97;4968897;28;20209;-66
2023/06/24 10:04:29;;;;;;;4.33;3.40;;;;;;;22.37;69.79;97777.00;4972205;28;20269;-66
2023/06/24 10:06:56;;;;;;;3.47;3.27;;;;;;;22.48;70.40;97778.00;4954168;28;20225;-66
2023/06/24 10:09:25;;;;;;;3.50;3.40;;;;;;;22.56;71.64;97774.88;4966970;28;20716;-66
2023/06/24 10:11:53;;;;;;;4.63;3.77;;;;;;;22.75;73.46;97761.91;4926337;28;20275;-67
2023/06/24 10:14:21;;;;;;;3.60;3.40;;;;;;;22.93;70.76;97763.50;4950654;28;20273;-66
2023/06/24 10:16:49;;;;;;;3.60;3.30;;;;;;;22.79;72.55;97763.06;4973349;28;20193;-65
2023/06/24 10:19:21;;;;;;;3.70;3.40;;;;;;;22.13;70.17;97755.56;4968295;28;20744;-65
2023/06/24 10:21:51;;;;;;;3.90;3.60;;;;;;;21.83;75.63;97764.78;4952797;28;20204;-67
2023/06/24 10:24:34;;;;;;;5.43;3.77;;;;;;;21.35;74.45;97767.66;4969781;28;20292;-66
2023/06/24 10:27:03;;;;;;;3.60;3.30;;;;;;;21.25;71.73;97749.44;4923910;28;20274;-66
2023/06/24 10:29:35;;;;;;;3.57;3.37;;;;;;;21.71;71.77;97754.06;4951869;28;20831;-66
2023/06/24 10:32:07;;;;;;;4.67;3.23;;;;;;;22.16;69.40;97752.41;4975522;28;20716;-66
2023/06/24 10:34:45;;;;;;;3.30;3.00;;;;;;;22.97;69.15;97744.94;4962733;28;20479;-67
2023/06/24 10:37:14;;;;;;;3.77;3.47;;;;;;;23.33;58.84;97745.38;4955132;28;20221;-66
2023/06/24 10:39:51;;;;;;;3.40;3.10;;;;;;;23.45;61.61;97737.09;4971976;28;20313;-66
2023/06/24 10:42:38;;;;;;;3.30;3.10;;;;;;;23.33;61.36;97747.25;4921276;28;20206;-65
2023/06/24 10:45:18;;;;;;;3.83;3.53;;;;;;;22.57;60.52;97733.31;4947211;28;20226;-65
2023/06/24 10:47:47;;;;;;;3.23;3.13;;;;;;;22.66;60.99;97731.00;4974319;28;20233;-65
2023/06/24 10:50:17;;;;;;;3.37;3.17;;;;;;;22.69;63.95;97722.41;4972802;28;20209;-66
2023/06/24 10:52:45;;;;;;;3.23;3.03;;;;;;;22.98;60.62;97728.44;4949439;28;20866;-66
2023/06/24 10:55:16;;;;;;;3.50;3.30;;;;;;;23.06;60.40;97721.78;4965968;28;20273;-66
2023/06/24 10:57:44;;;;;;;3.40;3.20;;;;;;;23.33;62.23;97715.66;4917185;28;21572;-66
2023/06/24 11:00:13;;;;;;;3.83;3.53;;;;;;;23.39;60.28;97709.22;4951425;28;20631;-64
2023/06/24 11:02:40;;;;;;;3.80;2.90;;;;;;;23.14;61.66;97712.44;4975130;28;20480;-65
2023/06/24 11:05:09;;;;;;;2.87;2.77;;;;;;;22.92;56.61;97710.53;4968499;28;20319;-65
2023/06/24 11:07:38;;;;;;;2.93;2.80;;;;;;;22.96;57.75;97705.47;4940371;28;21327;-66
2023/06/24 11:10:07;;;;;;;3.47;3.27;;;;;;;23.53;58.92;97700.69;4974476;28;20256;-66
2023/06/24 11:12:41;;;;;;;3.23;2.93;;;;;;;23.82;57.76;97698.50;4969695;28;20753;-68
2023/06/24 11:15:10;;;;;;;3.30;3.10;;;;;;;24.31;57.19;97691.34;4898038;28;20751;-67
2023/06/24 11:17:38;;;;;;;3.70;3.40;;;;;;;24.24;55.87;97688.03;4963855;28;20401;-68
2023/06/24 11:20:08;;;;;;;2.97;2.83;;;;;;;24.18;58.22;97681.78;4973672;28;20210;-69
2023/06/24 11:22:35;;;;;;;3.63;3.33;;;;;;;23.83;55.11;97677.69;4971007;28;20454;-69
2023/06/24 11:25:03;;;;;;;3.93;2.90;;;;;;;23.40;55.89;97688.38;4965146;28;20288;-69
2023/06/24 11:27:32;;;;;;;3.83;3.53;;;;;;;23.46;55.04;97679.25;4966546;28;20209;-69
2023/06/24 11:30:02;;;;;;;3.03;2.83;;;;;;;23.67;56.31;97677.56;4889776;28;20252;-68
2023/06/24 11:32:36;;;;;;;3.53;3.20;;;;;;;24.26;54.68;97673.16;4964561;28;20222;-68
2023/06/24 11:35:06;;;;;;;3.57;3.37;;;;;;;24.76;57.27;97662.06;4971126;28;20316;-69